createdAt,value
2023-03-02T00:01:43.631Z,0.90
2023-03-02T00:04:21.443Z,0.89
2023-03-02T00:06:49.074Z,0.89
2023-03-02T00:09:15.679Z,0.87
2023-03-02T00:11:42.318Z,0.86
2023-03-02T00:14:08.742Z,0.87
2023-03-02T00:16:35.415Z,0.88
2023-03-02T00:19:01.901Z,0.86
2023-03-02T00:21:28.306Z,0.85
2023-03-02T00:23:54.763Z,0.85
2023-03-02T00:26:21.191Z,0.88
2023-03-02T00:28:47.720Z,0.87
2023-03-02T00:31:14.550Z,0.86
2023-03-02T00:33:41.034Z,0.85
2023-03-02T00:36:15.054Z,0.84
2023-03-02T00:38:41.505Z,0.85
2023-03-02T00:41:07.920Z,0.81
2023-03-02T00:43:34.332Z,0.81
2023-03-02T00:46:09.041Z,0.81
2023-03-02T00:48:35.712Z,0.81
2023-03-02T00:51:02.134Z,0.78
2023-03-02T00:53:28.547Z,0.79
2023-03-02T00:55:55.297Z,0.81
2023-03-02T00:58:21.890Z,0.80
2023-03-02T01:00:48.755Z,0.79
2023-03-02T01:03:15.359Z,0.80
2023-03-02T01:05:41.824Z,0.81
2023-03-02T01:08:08.250Z,0.80
2023-03-02T01:10:34.799Z,0.80
2023-03-02T01:13:01.464Z,0.83
2023-03-02T01:15:27.886Z,0.82
2023-03-02T01:17:54.297Z,0.82
2023-03-02T01:20:20.785Z,0.83
2023-03-02T01:22:47.290Z,0.83
2023-03-02T01:25:13.734Z,0.84
2023-03-02T01:27:40.156Z,0.85
2023-03-02T01:30:07.160Z,0.80
2023-03-02T01:32:33.679Z,0.82
2023-03-02T01:35:00.118Z,0.81
2023-03-02T01:37:26.522Z,0.80
2023-03-02T01:39:52.948Z,0.79
2023-03-02T01:42:19.353Z,0.77
2023-03-02T01:44:48.425Z,0.74
2023-03-02T01:47:14.737Z,0.75
2023-03-02T01:49:57.328Z,0.77
2023-03-02T01:52:24.285Z,0.78
2023-03-02T01:54:51.760Z,0.75
2023-03-02T01:57:22.699Z,0.74
2023-03-02T01:59:51.003Z,0.75
2023-03-02T02:02:17.499Z,0.74
2023-03-02T02:04:45.580Z,0.74
2023-03-02T02:07:12.015Z,0.73
2023-03-02T02:09:44.766Z,0.72
2023-03-02T02:12:16.227Z,0.70
2023-03-02T02:14:43.346Z,0.67
2023-03-02T02:17:10.279Z,0.63
2023-03-02T02:20:00.476Z,0.62
2023-03-02T02:22:39.442Z,0.57
2023-03-02T02:25:12.085Z,0.53
2023-03-02T02:27:38.513Z,0.50
2023-03-02T02:30:06.709Z,0.49
2023-03-02T02:32:36.497Z,0.49
2023-03-02T02:35:07.333Z,0.47
2023-03-02T02:37:43.256Z,0.46
2023-03-02T02:40:17.916Z,0.45
2023-03-02T02:42:46.491Z,0.46
2023-03-02T02:45:22.266Z,0.46
2023-03-02T02:47:49.442Z,0.46
2023-03-02T02:50:23.249Z,0.45
2023-03-02T02:52:57.809Z,0.47
2023-03-02T02:55:24.779Z,0.47
2023-03-02T02:57:53.968Z,0.48
2023-03-02T03:00:21.635Z,0.47
2023-03-02T03:02:53.780Z,0.47
2023-03-02T03:05:20.186Z,0.48
2023-03-02T03:07:46.694Z,0.48
2023-03-02T03:10:29.240Z,0.50
2023-03-02T03:12:55.739Z,0.46
2023-03-02T03:15:22.840Z,0.48
2023-03-02T03:17:58.738Z,0.49
2023-03-02T03:20:26.492Z,0.46
2023-03-02T03:22:53.513Z,0.48
2023-03-02T03:25:25.879Z,0.47
2023-03-02T03:27:52.305Z,0.45
2023-03-02T03:30:18.727Z,0.44
2023-03-02T03:32:45.161Z,0.42
2023-03-02T03:35:12.165Z,0.41
2023-03-02T03:37:42.083Z,0.40
2023-03-02T03:40:09.790Z,0.39
2023-03-02T03:42:37.883Z,0.37
2023-03-02T03:45:05.850Z,0.36
2023-03-02T03:47:32.307Z,0.37
2023-03-02T03:49:58.718Z,0.38
2023-03-02T03:52:33.958Z,0.37
2023-03-02T03:55:01.240Z,0.37
2023-03-02T03:57:28.679Z,0.37
2023-03-02T03:59:55.288Z,0.36
2023-03-02T04:02:22.199Z,0.36
2023-03-02T04:04:48.664Z,0.34
2023-03-02T04:07:15.115Z,0.35
2023-03-02T04:09:41.726Z,0.32
2023-03-02T04:12:08.946Z,0.34
2023-03-02T04:14:35.853Z,0.33
2023-03-02T04:17:05.349Z,0.31
2023-03-02T04:19:32.396Z,0.31
2023-03-02T04:21:59.476Z,0.30
2023-03-02T04:24:25.989Z,0.29
2023-03-02T04:26:52.559Z,0.27
2023-03-02T04:29:19.099Z,0.27
2023-03-02T04:31:45.865Z,0.30
2023-03-02T04:34:12.274Z,0.32
2023-03-02T04:36:40.125Z,0.33
2023-03-02T04:39:07.252Z,0.33
2023-03-02T04:41:33.861Z,0.33
2023-03-02T04:44:00.258Z,0.33
2023-03-02T04:46:27.695Z,0.34
2023-03-02T04:48:54.948Z,0.31
2023-03-02T04:51:27.151Z,0.27
2023-03-02T04:53:56.079Z,0.30
2023-03-02T04:56:22.808Z,0.29
2023-03-02T04:58:49.492Z,0.32
2023-03-02T05:01:17.044Z,0.31
2023-03-02T05:03:43.632Z,0.35
2023-03-02T05:06:10.439Z,0.32
2023-03-02T05:08:37.123Z,0.31
2023-03-02T05:11:03.659Z,0.23
2023-03-02T05:13:30.260Z,0.20
2023-03-02T05:15:58.278Z,0.18
2023-03-02T05:18:25.306Z,0.19
2023-03-02T05:20:52.822Z,0.17
2023-03-02T05:23:27.508Z,0.12
2023-03-02T05:25:55.824Z,0.08
2023-03-02T05:28:24.547Z,0.06
2023-03-02T05:30:51.513Z,0.05
2023-03-02T05:33:18.690Z,-0.03
2023-03-02T05:35:45.816Z,-0.06
2023-03-02T05:38:12.279Z,-0.07
2023-03-02T05:40:39.725Z,-0.08
2023-03-02T05:43:06.533Z,-0.09
2023-03-02T05:45:36.209Z,-0.09
2023-03-02T05:48:03.142Z,-0.09
2023-03-02T05:50:29.632Z,-0.10
2023-03-02T05:52:56.087Z,-0.10
2023-03-02T05:55:22.550Z,-0.12
2023-03-02T05:57:49.428Z,-0.17
2023-03-02T06:00:17.391Z,-0.22
2023-03-02T06:02:43.969Z,-0.22
2023-03-02T06:05:16.760Z,-0.19
2023-03-02T06:07:43.375Z,-0.21
2023-03-02T06:10:11.624Z,-0.19
2023-03-02T06:12:38.610Z,-0.15
2023-03-02T06:15:06.662Z,-0.14
2023-03-02T06:17:33.216Z,-0.19
2023-03-02T06:19:59.657Z,-0.21
2023-03-02T06:22:26.130Z,-0.23
2023-03-02T06:24:55.103Z,-0.26
2023-03-02T06:27:21.833Z,-0.27
2023-03-02T06:29:48.256Z,-0.26
2023-03-02T06:32:14.790Z,-0.31
2023-03-02T06:34:41.275Z,-0.32
2023-03-02T06:37:07.684Z,-0.29
2023-03-02T06:39:34.203Z,-0.33
2023-03-02T06:42:00.676Z,-0.32
2023-03-02T06:44:27.099Z,-0.30
2023-03-02T06:46:53.528Z,-0.27
2023-03-02T06:49:19.944Z,-0.21
2023-03-02T06:51:46.428Z,-0.18
2023-03-02T06:54:12.950Z,-0.16
2023-03-02T06:56:41.006Z,-0.10
2023-03-02T06:59:07.676Z,-0.13
2023-03-02T07:01:36.182Z,-0.10
2023-03-02T07:04:03.310Z,-0.07
2023-03-02T07:06:29.807Z,-0.03
2023-03-02T07:08:57.237Z,0.02
2023-03-02T07:11:23.847Z,0.11
2023-03-02T07:13:50.999Z,0.14
2023-03-02T07:16:17.418Z,0.18
2023-03-02T07:18:43.897Z,0.25
2023-03-02T07:21:10.318Z,0.30
2023-03-02T07:23:36.749Z,0.31
2023-03-02T07:26:08.240Z,0.35
2023-03-02T07:28:43.324Z,0.35
2023-03-02T07:31:10.849Z,0.42
2023-03-02T07:33:38.818Z,0.48
2023-03-02T07:36:07.009Z,0.53
2023-03-02T07:38:33.791Z,0.58
2023-03-02T07:41:00.196Z,0.60
2023-03-02T07:43:28.710Z,0.60
2023-03-02T07:45:55.118Z,0.64
2023-03-02T07:48:23.284Z,0.67
2023-03-02T07:50:49.720Z,0.75
2023-03-02T07:53:16.130Z,0.75
2023-03-02T07:55:42.603Z,0.78
2023-03-02T07:58:09.015Z,0.83
2023-03-02T08:00:36.694Z,0.86
2023-03-02T08:03:03.193Z,0.85
2023-03-02T08:05:30.461Z,0.88
2023-03-02T08:07:56.893Z,0.95
2023-03-02T08:10:23.298Z,0.98
2023-03-02T08:12:49.743Z,1.00
2023-03-02T08:15:16.215Z,1.01
2023-03-02T08:17:42.629Z,1.04
2023-03-02T08:20:09.583Z,1.08
2023-03-02T08:22:36.423Z,1.10
2023-03-02T08:25:03.009Z,1.09
2023-03-02T08:27:29.497Z,1.13
2023-03-02T08:29:56.722Z,1.17
2023-03-02T08:32:23.195Z,1.26
2023-03-02T08:34:51.743Z,1.28
2023-03-02T08:37:21.230Z,1.29
2023-03-02T08:39:48.409Z,1.36
2023-03-02T08:42:14.822Z,1.39
2023-03-02T08:44:41.262Z,1.40
2023-03-02T08:47:07.674Z,1.45
2023-03-02T08:49:34.094Z,1.55
2023-03-02T08:52:00.723Z,1.59
2023-03-02T08:54:27.238Z,1.63
2023-03-02T08:56:53.666Z,1.70
2023-03-02T08:59:21.626Z,1.71
2023-03-02T09:01:48.161Z,1.73
2023-03-02T09:04:14.825Z,1.80
2023-03-02T09:06:43.645Z,1.86
2023-03-02T09:09:11.391Z,1.88
2023-03-02T09:11:38.256Z,1.92
2023-03-02T09:14:05.185Z,2.02
2023-03-02T09:16:31.934Z,2.04
2023-03-02T09:18:58.388Z,2.11
2023-03-02T09:21:24.910Z,2.18
2023-03-02T09:23:57.879Z,2.21
2023-03-02T09:26:25.761Z,2.26
2023-03-02T09:28:52.963Z,2.27
2023-03-02T09:31:19.451Z,2.26
2023-03-02T09:33:45.916Z,2.31
2023-03-02T09:36:20.915Z,2.37
2023-03-02T09:38:48.204Z,2.44
2023-03-02T09:41:20.637Z,2.46
2023-03-02T09:44:02.186Z,2.51
2023-03-02T09:46:49.976Z,2.49
2023-03-02T09:49:47.447Z,2.51
2023-03-02T09:52:31.004Z,2.53
2023-03-02T09:55:20.815Z,2.51
2023-03-02T09:57:47.556Z,2.53
2023-03-02T10:00:19.627Z,2.56
2023-03-02T10:02:49.599Z,2.62
2023-03-02T10:05:45.588Z,2.67
2023-03-02T10:08:17.333Z,2.73
2023-03-02T10:10:58.001Z,2.84
2023-03-02T10:13:42.313Z,2.88
2023-03-02T10:16:24.031Z,2.94
2023-03-02T10:19:14.788Z,2.97
2023-03-02T10:21:43.544Z,3.01
2023-03-02T10:24:36.315Z,3.06
2023-03-02T10:27:20.447Z,3.10
2023-03-02T10:29:51.352Z,3.11
2023-03-02T10:32:33.400Z,3.08
2023-03-02T10:35:02.665Z,3.13
2023-03-02T10:37:30.587Z,3.17
2023-03-02T10:39:57.217Z,3.22
2023-03-02T10:42:37.845Z,3.25
2023-03-02T10:45:27.497Z,3.30
2023-03-02T10:48:05.443Z,3.24
2023-03-02T10:50:32.321Z,3.25
2023-03-02T10:53:00.753Z,3.25
2023-03-02T10:55:28.649Z,3.24
2023-03-02T10:58:31.105Z,3.22
2023-03-02T11:01:14.076Z,3.23
2023-03-02T11:03:40.527Z,3.23
2023-03-02T11:06:18.257Z,3.26
2023-03-02T11:08:44.717Z,3.23
2023-03-02T11:11:22.442Z,3.30
2023-03-02T11:13:48.960Z,3.36
2023-03-02T11:16:18.322Z,3.42
2023-03-02T11:18:49.817Z,3.46
2023-03-02T11:21:35.601Z,3.46
2023-03-02T11:24:16.035Z,3.52
2023-03-02T11:26:56.763Z,3.55
2023-03-02T11:29:42.916Z,3.60
2023-03-02T11:32:17.537Z,3.64
2023-03-02T11:34:50.864Z,3.66
2023-03-02T11:37:34.608Z,3.66
2023-03-02T11:40:26.418Z,3.71
2023-03-02T11:42:53.308Z,3.75
2023-03-02T11:45:24.149Z,3.76
2023-03-02T11:48:03.224Z,3.79
2023-03-02T11:50:32.737Z,3.84
2023-03-02T11:53:01.526Z,3.82
2023-03-02T11:55:30.095Z,3.79
2023-03-02T12:00:41.274Z,3.82
2023-03-02T12:03:20.739Z,3.89
2023-03-02T12:06:01.809Z,3.90
2023-03-02T12:08:40.595Z,3.89
2023-03-02T12:11:19.095Z,3.95
2023-03-02T12:14:06.840Z,3.98
2023-03-02T12:16:41.710Z,3.96
2023-03-02T12:19:17.233Z,4.01
2023-03-02T12:21:56.702Z,4.01
2023-03-02T12:24:32.432Z,4.03
2023-03-02T12:27:06.290Z,4.11
2023-03-02T12:29:40.279Z,4.18
2023-03-02T12:32:23.676Z,4.22
2023-03-02T12:35:08.312Z,4.26
2023-03-02T12:37:47.547Z,4.30
2023-03-02T12:40:33.652Z,4.33
2023-03-02T12:43:28.495Z,4.31
2023-03-02T12:46:22.790Z,4.34
2023-03-02T12:49:08.714Z,4.35
2023-03-02T12:51:57.099Z,4.41
2023-03-02T12:54:26.069Z,4.43
2023-03-02T12:57:15.397Z,4.47
2023-03-02T12:59:42.422Z,4.51
2023-03-02T13:02:20.127Z,4.54
2023-03-02T13:04:57.489Z,4.52
2023-03-02T13:07:27.707Z,4.61
2023-03-02T13:09:57.144Z,4.69
2023-03-02T13:12:26.126Z,4.76
2023-03-02T13:14:54.937Z,4.84
2023-03-02T13:17:31.091Z,4.84
2023-03-02T13:20:02.083Z,4.87
2023-03-02T13:22:29.287Z,4.95
2023-03-02T13:25:03.363Z,5.02
2023-03-02T13:27:30.691Z,5.11
2023-03-02T13:30:12.716Z,5.20
2023-03-02T13:32:41.022Z,5.26
2023-03-02T13:35:26.430Z,5.30
2023-03-02T13:37:59.520Z,5.35
2023-03-02T13:40:33.581Z,5.40
2023-03-02T13:43:00.042Z,5.46
2023-03-02T13:45:28.579Z,5.42
2023-03-02T13:47:56.733Z,5.42
2023-03-02T13:50:25.912Z,5.44
2023-03-02T13:52:54.814Z,5.49
2023-03-02T13:55:22.205Z,5.49
2023-03-02T13:57:50.000Z,5.44
2023-03-02T14:00:20.093Z,5.45
2023-03-02T14:02:48.580Z,5.39
2023-03-02T14:05:21.076Z,5.36
2023-03-02T14:07:47.767Z,5.35
2023-03-02T14:10:18.090Z,5.30
2023-03-02T14:13:12.174Z,5.31
2023-03-02T14:15:41.655Z,5.26
2023-03-02T14:18:23.758Z,5.29
2023-03-02T14:20:50.235Z,5.34
2023-03-02T14:23:16.725Z,5.39
2023-03-02T14:25:43.160Z,5.36
2023-03-02T14:28:12.548Z,5.41
2023-03-02T14:30:39.988Z,5.37
2023-03-02T14:33:10.006Z,5.35
2023-03-02T14:35:36.529Z,5.35
2023-03-02T14:38:02.975Z,5.37
2023-03-02T14:40:29.492Z,5.41
2023-03-02T14:42:55.920Z,5.45
2023-03-02T14:45:23.026Z,5.47
2023-03-02T14:47:49.648Z,5.49
2023-03-02T14:50:18.926Z,5.44
2023-03-02T14:52:51.759Z,5.40
2023-03-02T14:55:29.142Z,5.36
2023-03-02T14:57:58.260Z,5.37
2023-03-02T15:00:25.377Z,5.38
2023-03-02T15:02:52.049Z,5.38
2023-03-02T15:05:19.108Z,5.32
2023-03-02T15:07:46.237Z,5.24
2023-03-02T15:10:15.701Z,5.16
2023-03-02T15:12:42.172Z,5.15
2023-03-02T15:15:09.498Z,5.12
2023-03-02T15:17:35.913Z,5.05
2023-03-02T15:20:02.329Z,4.97
2023-03-02T15:22:28.762Z,4.85
2023-03-02T15:24:55.365Z,4.71
2023-03-02T15:27:23.052Z,4.62
2023-03-02T15:29:49.501Z,4.53
2023-03-02T15:32:16.529Z,4.46
2023-03-02T15:34:43.354Z,4.36
2023-03-02T15:37:11.294Z,4.26
2023-03-02T15:39:38.002Z,4.21
2023-03-02T15:42:05.093Z,4.18
2023-03-02T15:44:31.523Z,4.13
2023-03-02T15:46:59.818Z,4.09
2023-03-02T15:49:28.470Z,4.03
2023-03-02T15:51:58.391Z,4.02
2023-03-02T15:54:25.887Z,3.98
2023-03-02T15:56:53.296Z,3.95
2023-03-02T15:59:25.374Z,3.91
2023-03-02T16:01:52.227Z,3.89
2023-03-02T16:04:18.698Z,3.92
2023-03-02T16:06:45.211Z,3.89
2023-03-02T16:09:12.032Z,3.91
2023-03-02T16:11:38.443Z,3.85
2023-03-02T16:14:05.105Z,3.86
2023-03-02T16:16:31.568Z,3.87
2023-03-02T16:18:58.568Z,3.83
2023-03-02T16:21:26.822Z,3.75
2023-03-02T16:23:53.791Z,3.71
2023-03-02T16:26:21.811Z,3.70
2023-03-02T16:28:48.721Z,3.70
2023-03-02T16:31:18.930Z,3.67
2023-03-02T16:33:46.718Z,3.68
2023-03-02T16:36:14.552Z,3.64
2023-03-02T16:38:41.166Z,3.65
2023-03-02T16:41:13.220Z,3.70
2023-03-02T16:43:45.334Z,3.68
2023-03-02T16:46:11.839Z,3.66
2023-03-02T16:48:38.279Z,3.66
2023-03-02T16:51:05.372Z,3.64
2023-03-02T16:53:31.888Z,3.61
2023-03-02T16:55:58.317Z,3.57
2023-03-02T16:58:24.941Z,3.56
2023-03-02T17:00:51.518Z,3.62
2023-03-02T17:03:18.076Z,3.55
2023-03-02T17:05:44.571Z,3.49
2023-03-02T17:08:11.994Z,3.43
2023-03-02T17:10:39.272Z,3.38
2023-03-02T17:13:05.778Z,3.31
2023-03-02T17:15:32.621Z,3.25
2023-03-02T17:17:59.060Z,3.25
2023-03-02T17:20:25.907Z,3.23
2023-03-02T17:22:52.342Z,3.15
2023-03-02T17:25:19.964Z,3.16
2023-03-02T17:27:46.444Z,3.16
2023-03-02T17:30:14.886Z,3.14
2023-03-02T17:32:41.869Z,3.10
2023-03-02T17:35:10.002Z,3.09
2023-03-02T17:37:36.824Z,3.07
2023-03-02T17:40:03.962Z,3.11
2023-03-02T17:42:30.455Z,3.07
2023-03-02T17:44:56.886Z,3.06
2023-03-02T17:47:23.530Z,3.05
2023-03-02T17:49:50.043Z,3.06
2023-03-02T17:52:17.760Z,3.06
2023-03-02T17:54:44.752Z,3.17
2023-03-02T17:57:11.792Z,3.14
2023-03-02T17:59:38.413Z,3.12
2023-03-02T18:02:04.879Z,3.13
2023-03-02T18:04:31.363Z,3.14
2023-03-02T18:06:57.837Z,3.13
2023-03-02T18:09:24.276Z,3.14
2023-03-02T18:11:50.754Z,3.15
2023-03-02T18:14:20.053Z,3.11
2023-03-02T18:16:46.794Z,3.09
2023-03-02T18:19:13.748Z,3.06
2023-03-02T18:21:41.726Z,3.02
2023-03-02T18:24:08.912Z,3.01
2023-03-02T18:26:35.343Z,2.98
2023-03-02T18:29:01.764Z,2.94
2023-03-02T18:31:28.500Z,2.93
2023-03-02T18:33:55.004Z,2.88
2023-03-02T18:36:21.426Z,2.88
2023-03-02T18:38:47.867Z,2.83
2023-03-02T18:41:14.334Z,2.78
2023-03-02T18:43:41.775Z,2.73
2023-03-02T18:46:17.826Z,2.70
2023-03-02T18:48:44.313Z,2.60
2023-03-02T18:51:10.763Z,2.61
2023-03-02T18:53:38.046Z,2.60
2023-03-02T18:56:04.591Z,2.59
2023-03-02T18:58:34.091Z,2.55
2023-03-02T19:01:00.978Z,2.49
2023-03-02T19:03:27.825Z,2.45
2023-03-02T19:05:57.649Z,2.43
2023-03-02T19:08:25.326Z,2.42
2023-03-02T19:10:52.909Z,2.43
2023-03-02T19:13:20.037Z,2.47
2023-03-02T19:15:47.158Z,2.45
2023-03-02T19:18:18.521Z,2.47
2023-03-02T19:20:45.565Z,2.45
2023-03-02T19:23:12.048Z,2.48
2023-03-02T19:25:38.803Z,2.54
2023-03-02T19:28:06.245Z,2.46
2023-03-02T19:30:34.009Z,2.45
2023-03-02T19:33:01.803Z,2.44
2023-03-02T19:35:29.475Z,2.44
2023-03-02T19:37:56.381Z,2.42
2023-03-02T19:40:24.828Z,2.42
2023-03-02T19:42:52.557Z,2.40
2023-03-02T19:45:24.902Z,2.42
2023-03-02T19:47:51.437Z,2.41
2023-03-02T19:50:19.684Z,2.38
2023-03-02T19:52:46.600Z,2.39
2023-03-02T19:55:14.848Z,2.35
2023-03-02T19:57:42.816Z,2.34
2023-03-02T20:00:13.639Z,2.31
2023-03-02T20:02:40.794Z,2.32
2023-03-02T20:05:09.489Z,2.33
2023-03-02T20:07:36.058Z,2.34
2023-03-02T20:10:02.644Z,2.35
2023-03-02T20:12:29.133Z,2.35
2023-03-02T20:14:56.771Z,2.32
2023-03-02T20:17:23.885Z,2.28
2023-03-02T20:19:51.045Z,2.30
2023-03-02T20:22:17.472Z,2.34
2023-03-02T20:24:43.942Z,2.36
2023-03-02T20:27:12.485Z,2.36
2023-03-02T20:29:41.514Z,2.35
2023-03-02T20:32:09.955Z,2.37
2023-03-02T20:34:37.954Z,2.35
2023-03-02T20:37:06.132Z,2.32
2023-03-02T20:39:35.461Z,2.33
2023-03-02T20:42:02.473Z,2.30
2023-03-02T20:44:30.983Z,2.25
2023-03-02T20:47:01.518Z,2.23
2023-03-02T20:49:30.394Z,2.23
2023-03-02T20:51:58.591Z,2.19
2023-03-02T20:54:28.430Z,2.18
2023-03-02T20:56:55.209Z,2.20
2023-03-02T20:59:22.597Z,2.18
2023-03-02T21:01:49.173Z,2.15
2023-03-02T21:04:15.655Z,2.12
2023-03-02T21:06:42.160Z,2.09
2023-03-02T21:09:09.188Z,2.05
2023-03-02T21:11:36.057Z,2.04
2023-03-02T21:14:03.207Z,2.04
2023-03-02T21:16:36.020Z,2.04
2023-03-02T21:19:04.474Z,2.02
2023-03-02T21:21:41.030Z,2.00
2023-03-02T21:24:09.823Z,1.96
2023-03-02T21:26:36.844Z,1.95
2023-03-02T21:29:05.121Z,1.94
2023-03-02T21:31:31.634Z,1.94
2023-03-02T21:33:58.227Z,1.95
2023-03-02T21:36:26.854Z,1.92
2023-03-02T21:38:54.257Z,1.90
2023-03-02T21:41:21.080Z,1.89
2023-03-02T21:43:47.819Z,1.93
2023-03-02T21:46:16.746Z,1.94
2023-03-02T21:48:43.568Z,1.93
2023-03-02T21:51:11.653Z,1.93
2023-03-02T21:53:38.118Z,1.91
2023-03-02T21:56:04.981Z,1.90
2023-03-02T21:58:31.407Z,1.87
2023-03-02T22:00:57.862Z,1.86
2023-03-02T22:03:24.270Z,1.88
2023-03-02T22:05:51.007Z,1.83
2023-03-02T22:08:18.717Z,1.83
2023-03-02T22:10:47.080Z,1.83
2023-03-02T22:13:15.286Z,1.84
2023-03-02T22:15:41.957Z,1.77
2023-03-02T22:18:15.860Z,1.75
2023-03-02T22:20:44.822Z,1.72
2023-03-02T22:23:23.453Z,1.72
2023-03-02T22:25:52.706Z,1.68
2023-03-02T22:28:21.564Z,1.65
2023-03-02T22:30:49.366Z,1.67
2023-03-02T22:33:19.665Z,1.67
2023-03-02T22:35:47.315Z,1.66
2023-03-02T22:38:23.413Z,1.68
2023-03-02T22:40:50.002Z,1.69
2023-03-02T22:43:29.534Z,1.73
2023-03-02T22:46:05.926Z,1.73
2023-03-02T22:48:35.673Z,1.72
2023-03-02T22:51:22.821Z,1.64
2023-03-02T22:53:57.537Z,1.66
2023-03-02T22:56:26.198Z,1.69
2023-03-02T22:58:52.768Z,1.67
2023-03-02T23:01:25.261Z,1.64
2023-03-02T23:03:54.244Z,1.67
2023-03-02T23:06:31.594Z,1.62
2023-03-02T23:09:00.628Z,1.64
2023-03-02T23:11:27.829Z,1.63
2023-03-02T23:13:54.758Z,1.62
2023-03-02T23:16:27.086Z,1.57
2023-03-02T23:18:56.231Z,1.62
2023-03-02T23:21:45.322Z,1.61
2023-03-02T23:24:12.329Z,1.55
2023-03-02T23:26:39.409Z,1.54
2023-03-02T23:29:06.207Z,1.59
2023-03-02T23:31:32.905Z,1.64
2023-03-02T23:33:59.580Z,1.65
2023-03-02T23:36:27.624Z,1.68
2023-03-02T23:38:54.087Z,1.69
2023-03-02T23:41:20.709Z,1.65
2023-03-02T23:43:47.230Z,1.67
2023-03-02T23:46:14.263Z,1.70
2023-03-02T23:48:42.314Z,1.68
2023-03-02T23:51:09.502Z,1.65
2023-03-02T23:53:35.925Z,1.68
2023-03-02T23:56:02.507Z,1.72
2023-03-02T23:58:28.952Z,1.73
